sensor_id;sensor_type;location;lat;lon;timestamp;P1;durP1;ratioP1;P2;durP2;ratioP2
21860;SDS011;11095;48.066;8.540;2023-06-05T00:01:12;4.80;;;3.67;;
21860;SDS011;11095;48.066;8.540;2023-06-05T00:03:38;6.35;;;3.92;;
21860;SDS011;11095;48.066;8.540;2023-06-05T00:06:04;5.38;;;4.03;;
21860;SDS011;11095;48.066;8.540;2023-06-05T00:08:30;5.53;;;4.13;;
21860;SDS011;11095;48.066;8.540;2023-06-05T00:10:56;5.55;;;3.88;;
21860;SDS011;11095;48.066;8.540;2023-06-05T00:13:21;5.85;;;3.95;;
21860;SDS011;11095;48.066;8.540;2023-06-05T00:15:47;5.20;;;4.00;;
21860;SDS011;11095;48.066;8.540;2023-06-05T00:18:13;5.50;;;3.90;;
21860;SDS011;11095;48.066;8.540;2023-06-05T00:20:39;6.03;;;3.60;;
21860;SDS011;11095;48.066;8.540;2023-06-05T00:23:05;5.18;;;4.03;;
21860;SDS011;11095;48.066;8.540;2023-06-05T00:25:31;6.22;;;4.30;;
21860;SDS011;11095;48.066;8.540;2023-06-05T00:27:56;5.53;;;4.10;;
21860;SDS011;11095;48.066;8.540;2023-06-05T00:30:22;6.25;;;3.97;;
21860;SDS011;11095;48.066;8.540;2023-06-05T00:32:48;5.10;;;3.78;;
21860;SDS011;11095;48.066;8.540;2023-06-05T00:35:13;5.88;;;3.90;;
21860;SDS011;11095;48.066;8.540;2023-06-05T00:37:39;4.70;;;3.70;;
21860;SDS011;11095;48.066;8.540;2023-06-05T00:40:06;4.80;;;3.90;;
21860;SDS011;11095;48.066;8.540;2023-06-05T00:42:32;6.03;;;3.90;;
21860;SDS011;11095;48.066;8.540;2023-06-05T00:44:58;5.72;;;3.72;;
21860;SDS011;11095;48.066;8.540;2023-06-05T00:47:23;5.32;;;3.90;;
21860;SDS011;11095;48.066;8.540;2023-06-05T00:49:49;4.68;;;3.80;;
21860;SDS011;11095;48.066;8.540;2023-06-05T00:52:15;6.07;;;4.18;;
21860;SDS011;11095;48.066;8.540;2023-06-05T00:54:41;5.18;;;3.97;;
21860;SDS011;11095;48.066;8.540;2023-06-05T00:57:08;5.13;;;3.50;;
21860;SDS011;11095;48.066;8.540;2023-06-05T00:59:34;5.15;;;3.58;;
21860;SDS011;11095;48.066;8.540;2023-06-05T01:02:01;5.20;;;4.03;;
21860;SDS011;11095;48.066;8.540;2023-06-05T01:04:28;5.13;;;4.00;;
21860;SDS011;11095;48.066;8.540;2023-06-05T01:06:54;6.10;;;4.20;;
21860;SDS011;11095;48.066;8.540;2023-06-05T01:09:22;6.18;;;4.32;;
21860;SDS011;11095;48.066;8.540;2023-06-05T01:14:18;4.55;;;4.05;;
21860;SDS011;11095;48.066;8.540;2023-06-05T01:16:50;5.55;;;4.15;;
21860;SDS011;11095;48.066;8.540;2023-06-05T01:19:21;6.03;;;4.35;;
21860;SDS011;11095;48.066;8.540;2023-06-05T01:21:50;6.20;;;4.63;;
21860;SDS011;11095;48.066;8.540;2023-06-05T01:24:16;5.30;;;4.00;;
21860;SDS011;11095;48.066;8.540;2023-06-05T01:26:50;7.07;;;4.45;;
21860;SDS011;11095;48.066;8.540;2023-06-05T01:29:26;4.75;;;4.15;;
21860;SDS011;11095;48.066;8.540;2023-06-05T01:32:07;5.13;;;4.18;;
21860;SDS011;11095;48.066;8.540;2023-06-05T01:34:43;5.65;;;4.15;;
21860;SDS011;11095;48.066;8.540;2023-06-05T01:37:10;6.10;;;4.03;;
21860;SDS011;11095;48.066;8.540;2023-06-05T01:39:44;4.85;;;3.90;;
21860;SDS011;11095;48.066;8.540;2023-06-05T01:42:11;6.00;;;4.53;;
21860;SDS011;11095;48.066;8.540;2023-06-05T01:44:38;5.35;;;4.20;;
21860;SDS011;11095;48.066;8.540;2023-06-05T01:47:06;5.28;;;4.20;;
21860;SDS011;11095;48.066;8.540;2023-06-05T01:49:33;5.68;;;4.05;;
21860;SDS011;11095;48.066;8.540;2023-06-05T01:51:59;5.38;;;4.00;;
21860;SDS011;11095;48.066;8.540;2023-06-05T01:54:25;6.22;;;4.60;;
21860;SDS011;11095;48.066;8.540;2023-06-05T01:56:51;5.85;;;4.38;;
21860;SDS011;11095;48.066;8.540;2023-06-05T01:59:18;4.72;;;4.10;;
21860;SDS011;11095;48.066;8.540;2023-06-05T02:01:44;4.60;;;3.90;;
21860;SDS011;11095;48.066;8.540;2023-06-05T02:04:11;5.57;;;4.43;;
21860;SDS011;11095;48.066;8.540;2023-06-05T02:06:41;4.50;;;3.97;;
21860;SDS011;11095;48.066;8.540;2023-06-05T02:09:09;3.70;;;3.35;;
21860;SDS011;11095;48.066;8.540;2023-06-05T02:11:37;6.38;;;4.40;;
21860;SDS011;11095;48.066;8.540;2023-06-05T02:14:04;5.50;;;3.67;;
21860;SDS011;11095;48.066;8.540;2023-06-05T02:16:31;5.47;;;3.53;;
21860;SDS011;11095;48.066;8.540;2023-06-05T02:18:57;5.22;;;3.70;;
21860;SDS011;11095;48.066;8.540;2023-06-05T02:21:28;5.88;;;4.13;;
21860;SDS011;11095;48.066;8.540;2023-06-05T02:23:57;5.57;;;3.88;;
21860;SDS011;11095;48.066;8.540;2023-06-05T02:26:24;4.78;;;3.80;;
21860;SDS011;11095;48.066;8.540;2023-06-05T02:28:50;4.95;;;3.97;;
21860;SDS011;11095;48.066;8.540;2023-06-05T02:31:19;9.68;;;6.68;;
21860;SDS011;11095;48.066;8.540;2023-06-05T02:33:50;11.02;;;6.78;;
21860;SDS011;11095;48.066;8.540;2023-06-05T02:36:16;10.50;;;6.38;;
21860;SDS011;11095;48.066;8.540;2023-06-05T02:38:42;9.00;;;5.85;;
21860;SDS011;11095;48.066;8.540;2023-06-05T02:41:09;7.13;;;5.10;;
21860;SDS011;11095;48.066;8.540;2023-06-05T02:43:35;5.28;;;4.10;;
21860;SDS011;11095;48.066;8.540;2023-06-05T02:46:01;6.72;;;4.30;;
21860;SDS011;11095;48.066;8.540;2023-06-05T02:48:26;6.57;;;4.07;;
21860;SDS011;11095;48.066;8.540;2023-06-05T02:50:52;4.55;;;3.80;;
21860;SDS011;11095;48.066;8.540;2023-06-05T02:53:17;5.55;;;4.15;;
21860;SDS011;11095;48.066;8.540;2023-06-05T02:55:43;5.28;;;3.88;;
21860;SDS011;11095;48.066;8.540;2023-06-05T02:58:09;4.78;;;3.38;;
21860;SDS011;11095;48.066;8.540;2023-06-05T03:00:37;4.30;;;3.40;;
21860;SDS011;11095;48.066;8.540;2023-06-05T03:03:03;4.03;;;3.28;;
21860;SDS011;11095;48.066;8.540;2023-06-05T03:05:31;4.68;;;3.58;;
21860;SDS011;11095;48.066;8.540;2023-06-05T03:08:03;4.00;;;3.40;;
21860;SDS011;11095;48.066;8.540;2023-06-05T03:10:31;4.72;;;3.33;;
21860;SDS011;11095;48.066;8.540;2023-06-05T03:12:57;4.30;;;3.53;;
21860;SDS011;11095;48.066;8.540;2023-06-05T03:15:23;4.82;;;3.60;;
21860;SDS011;11095;48.066;8.540;2023-06-05T03:17:49;4.78;;;3.30;;
21860;SDS011;11095;48.066;8.540;2023-06-05T03:20:16;4.63;;;3.70;;
21860;SDS011;11095;48.066;8.540;2023-06-05T03:22:43;4.75;;;3.33;;
21860;SDS011;11095;48.066;8.540;2023-06-05T03:25:09;4.03;;;3.40;;
21860;SDS011;11095;48.066;8.540;2023-06-05T03:27:35;5.93;;;3.55;;
21860;SDS011;11095;48.066;8.540;2023-06-05T03:30:01;4.82;;;3.60;;
21860;SDS011;11095;48.066;8.540;2023-06-05T03:32:27;4.35;;;3.60;;
21860;SDS011;11095;48.066;8.540;2023-06-05T03:34:52;6.20;;;3.63;;
21860;SDS011;11095;48.066;8.540;2023-06-05T03:37:18;5.22;;;3.80;;
21860;SDS011;11095;48.066;8.540;2023-06-05T03:39:43;4.95;;;3.60;;
21860;SDS011;11095;48.066;8.540;2023-06-05T03:42:09;5.10;;;3.47;;
21860;SDS011;11095;48.066;8.540;2023-06-05T03:44:36;5.13;;;3.70;;
21860;SDS011;11095;48.066;8.540;2023-06-05T03:47:02;4.95;;;3.42;;
21860;SDS011;11095;48.066;8.540;2023-06-05T03:49:28;4.38;;;3.45;;
21860;SDS011;11095;48.066;8.540;2023-06-05T03:51:54;4.43;;;3.35;;
21860;SDS011;11095;48.066;8.540;2023-06-05T03:54:27;4.80;;;3.50;;
21860;SDS011;11095;48.066;8.540;2023-06-05T03:56:54;4.60;;;3.10;;
21860;SDS011;11095;48.066;8.540;2023-06-05T03:59:21;4.20;;;2.83;;
21860;SDS011;11095;48.066;8.540;2023-06-05T04:01:48;4.32;;;3.30;;
21860;SDS011;11095;48.066;8.540;2023-06-05T04:04:14;3.88;;;3.05;;
21860;SDS011;11095;48.066;8.540;2023-06-05T04:06:39;4.63;;;3.03;;
21860;SDS011;11095;48.066;8.540;2023-06-05T04:09:06;3.72;;;2.90;;
21860;SDS011;11095;48.066;8.540;2023-06-05T04:11:40;3.58;;;3.10;;
21860;SDS011;11095;48.066;8.540;2023-06-05T04:16:34;4.68;;;2.92;;
21860;SDS011;11095;48.066;8.540;2023-06-05T04:19:08;6.13;;;3.22;;
21860;SDS011;11095;48.066;8.540;2023-06-05T04:21:35;3.95;;;3.03;;
21860;SDS011;11095;48.066;8.540;2023-06-05T04:24:03;5.90;;;3.28;;
21860;SDS011;11095;48.066;8.540;2023-06-05T04:26:32;5.05;;;3.17;;
21860;SDS011;11095;48.066;8.540;2023-06-05T04:28:59;5.95;;;3.17;;
21860;SDS011;11095;48.066;8.540;2023-06-05T04:31:25;6.30;;;3.22;;
21860;SDS011;11095;48.066;8.540;2023-06-05T04:33:50;7.65;;;3.30;;
21860;SDS011;11095;48.066;8.540;2023-06-05T04:36:16;5.10;;;3.15;;
21860;SDS011;11095;48.066;8.540;2023-06-05T04:38:43;9.02;;;4.03;;
21860;SDS011;11095;48.066;8.540;2023-06-05T04:41:10;7.35;;;3.63;;
21860;SDS011;11095;48.066;8.540;2023-06-05T04:43:36;6.18;;;3.55;;
21860;SDS011;11095;48.066;8.540;2023-06-05T04:46:01;7.05;;;3.70;;
21860;SDS011;11095;48.066;8.540;2023-06-05T04:48:28;6.38;;;3.38;;
21860;SDS011;11095;48.066;8.540;2023-06-05T04:50:54;4.57;;;2.97;;
21860;SDS011;11095;48.066;8.540;2023-06-05T04:53:21;7.18;;;3.33;;
21860;SDS011;11095;48.066;8.540;2023-06-05T04:55:47;6.00;;;3.47;;
21860;SDS011;11095;48.066;8.540;2023-06-05T04:58:13;4.68;;;3.28;;
21860;SDS011;11095;48.066;8.540;2023-06-05T05:00:41;5.50;;;3.17;;
21860;SDS011;11095;48.066;8.540;2023-06-05T05:03:09;5.15;;;3.50;;
21860;SDS011;11095;48.066;8.540;2023-06-05T05:05:38;5.03;;;2.92;;
21860;SDS011;11095;48.066;8.540;2023-06-05T05:08:04;5.50;;;3.55;;
21860;SDS011;11095;48.066;8.540;2023-06-05T05:10:30;6.13;;;2.95;;
21860;SDS011;11095;48.066;8.540;2023-06-05T05:12:57;5.25;;;2.90;;
21860;SDS011;11095;48.066;8.540;2023-06-05T05:15:26;4.78;;;3.28;;
21860;SDS011;11095;48.066;8.540;2023-06-05T05:17:53;5.53;;;2.90;;
21860;SDS011;11095;48.066;8.540;2023-06-05T05:20:19;4.88;;;3.17;;
21860;SDS011;11095;48.066;8.540;2023-06-05T05:22:45;7.28;;;3.38;;
21860;SDS011;11095;48.066;8.540;2023-06-05T05:25:11;5.13;;;3.00;;
21860;SDS011;11095;48.066;8.540;2023-06-05T05:27:37;4.47;;;2.75;;
21860;SDS011;11095;48.066;8.540;2023-06-05T05:30:03;3.60;;;2.80;;
21860;SDS011;11095;48.066;8.540;2023-06-05T05:32:29;3.80;;;3.20;;
21860;SDS011;11095;48.066;8.540;2023-06-05T05:34:55;6.07;;;3.25;;
21860;SDS011;11095;48.066;8.540;2023-06-05T05:37:20;4.93;;;2.85;;
21860;SDS011;11095;48.066;8.540;2023-06-05T05:39:47;3.80;;;2.72;;
21860;SDS011;11095;48.066;8.540;2023-06-05T05:42:12;3.28;;;2.63;;
21860;SDS011;11095;48.066;8.540;2023-06-05T05:44:38;5.70;;;2.65;;
21860;SDS011;11095;48.066;8.540;2023-06-05T05:47:07;4.40;;;2.72;;
21860;SDS011;11095;48.066;8.540;2023-06-05T05:49:33;3.40;;;2.42;;
21860;SDS011;11095;48.066;8.540;2023-06-05T05:51:59;3.42;;;2.50;;
21860;SDS011;11095;48.066;8.540;2023-06-05T05:54:25;3.15;;;2.50;;
21860;SDS011;11095;48.066;8.540;2023-06-05T05:56:52;5.53;;;2.33;;
21860;SDS011;11095;48.066;8.540;2023-06-05T05:59:18;2.97;;;2.40;;
21860;SDS011;11095;48.066;8.540;2023-06-05T06:01:44;4.32;;;2.65;;
21860;SDS011;11095;48.066;8.540;2023-06-05T06:04:10;5.05;;;2.33;;
21860;SDS011;11095;48.066;8.540;2023-06-05T06:06:37;4.35;;;2.33;;
21860;SDS011;11095;48.066;8.540;2023-06-05T06:09:05;3.28;;;2.50;;
21860;SDS011;11095;48.066;8.540;2023-06-05T06:11:33;3.73;;;2.23;;
21860;SDS011;11095;48.066;8.540;2023-06-05T06:13:59;3.78;;;2.40;;
21860;SDS011;11095;48.066;8.540;2023-06-05T06:16:25;4.47;;;2.38;;
21860;SDS011;11095;48.066;8.540;2023-06-05T06:18:51;3.75;;;2.45;;
21860;SDS011;11095;48.066;8.540;2023-06-05T06:21:17;4.13;;;2.50;;
21860;SDS011;11095;48.066;8.540;2023-06-05T06:23:43;4.30;;;2.50;;
21860;SDS011;11095;48.066;8.540;2023-06-05T06:26:10;3.35;;;2.70;;
21860;SDS011;11095;48.066;8.540;2023-06-05T06:28:36;4.18;;;2.60;;
21860;SDS011;11095;48.066;8.540;2023-06-05T06:31:02;3.65;;;2.67;;
21860;SDS011;11095;48.066;8.540;2023-06-05T06:33:28;3.28;;;2.45;;
21860;SDS011;11095;48.066;8.540;2023-06-05T06:35:54;3.03;;;2.00;;
21860;SDS011;11095;48.066;8.540;2023-06-05T06:38:23;2.97;;;2.30;;
21860;SDS011;11095;48.066;8.540;2023-06-05T06:40:54;2.95;;;2.35;;
21860;SDS011;11095;48.066;8.540;2023-06-05T06:43:24;4.40;;;2.60;;
21860;SDS011;11095;48.066;8.540;2023-06-05T06:45:51;5.18;;;2.45;;
21860;SDS011;11095;48.066;8.540;2023-06-05T06:48:17;3.38;;;2.15;;
21860;SDS011;11095;48.066;8.540;2023-06-05T06:50:43;4.20;;;2.28;;
21860;SDS011;11095;48.066;8.540;2023-06-05T06:53:09;6.40;;;2.58;;
21860;SDS011;11095;48.066;8.540;2023-06-05T06:55:35;3.88;;;2.88;;
21860;SDS011;11095;48.066;8.540;2023-06-05T06:58:01;2.92;;;2.30;;
21860;SDS011;11095;48.066;8.540;2023-06-05T07:00:30;5.18;;;2.80;;
21860;SDS011;11095;48.066;8.540;2023-06-05T07:02:56;4.45;;;2.75;;
21860;SDS011;11095;48.066;8.540;2023-06-05T07:05:21;5.60;;;2.72;;
21860;SDS011;11095;48.066;8.540;2023-06-05T07:07:47;3.92;;;2.50;;
21860;SDS011;11095;48.066;8.540;2023-06-05T07:10:13;6.68;;;2.70;;
21860;SDS011;11095;48.066;8.540;2023-06-05T07:12:39;4.70;;;2.83;;
21860;SDS011;11095;48.066;8.540;2023-06-05T07:15:05;4.82;;;2.80;;
21860;SDS011;11095;48.066;8.540;2023-06-05T07:17:31;4.00;;;2.60;;
21860;SDS011;11095;48.066;8.540;2023-06-05T07:19:57;9.38;;;3.38;;
21860;SDS011;11095;48.066;8.540;2023-06-05T07:22:23;8.40;;;3.15;;
21860;SDS011;11095;48.066;8.540;2023-06-05T07:24:53;4.57;;;2.90;;
21860;SDS011;11095;48.066;8.540;2023-06-05T07:27:19;5.45;;;3.00;;
21860;SDS011;11095;48.066;8.540;2023-06-05T07:29:45;5.80;;;3.00;;
21860;SDS011;11095;48.066;8.540;2023-06-05T07:32:12;5.78;;;2.90;;
21860;SDS011;11095;48.066;8.540;2023-06-05T07:34:38;4.15;;;2.83;;
21860;SDS011;11095;48.066;8.540;2023-06-05T07:37:04;4.38;;;2.60;;
21860;SDS011;11095;48.066;8.540;2023-06-05T07:39:32;4.63;;;2.92;;
21860;SDS011;11095;48.066;8.540;2023-06-05T07:41:57;8.52;;;3.10;;
21860;SDS011;11095;48.066;8.540;2023-06-05T07:44:23;5.78;;;3.22;;
21860;SDS011;11095;48.066;8.540;2023-06-05T07:46:49;7.80;;;3.00;;
21860;SDS011;11095;48.066;8.540;2023-06-05T07:49:15;9.40;;;3.10;;
21860;SDS011;11095;48.066;8.540;2023-06-05T07:51:42;8.77;;;2.97;;
21860;SDS011;11095;48.066;8.540;2023-06-05T07:54:11;6.63;;;3.05;;
21860;SDS011;11095;48.066;8.540;2023-06-05T07:56:38;4.30;;;3.25;;
21860;SDS011;11095;48.066;8.540;2023-06-05T07:59:04;5.57;;;3.22;;
21860;SDS011;11095;48.066;8.540;2023-06-05T08:01:32;7.30;;;3.35;;
21860;SDS011;11095;48.066;8.540;2023-06-05T08:04:03;6.15;;;2.90;;
21860;SDS011;11095;48.066;8.540;2023-06-05T08:06:30;6.97;;;3.15;;
21860;SDS011;11095;48.066;8.540;2023-06-05T08:08:57;6.72;;;3.30;;
21860;SDS011;11095;48.066;8.540;2023-06-05T08:11:23;3.78;;;3.00;;
21860;SDS011;11095;48.066;8.540;2023-06-05T08:13:50;7.50;;;3.40;;
21860;SDS011;11095;48.066;8.540;2023-06-05T08:16:15;5.85;;;3.30;;
21860;SDS011;11095;48.066;8.540;2023-06-05T08:18:41;3.15;;;2.83;;
21860;SDS011;11095;48.066;8.540;2023-06-05T08:21:07;4.93;;;3.15;;
21860;SDS011;11095;48.066;8.540;2023-06-05T08:23:33;5.20;;;3.60;;
21860;SDS011;11095;48.066;8.540;2023-06-05T08:25:58;4.10;;;3.17;;
21860;SDS011;11095;48.066;8.540;2023-06-05T08:28:24;5.28;;;3.50;;
21860;SDS011;11095;48.066;8.540;2023-06-05T08:30:50;4.80;;;3.90;;
21860;SDS011;11095;48.066;8.540;2023-06-05T08:33:17;5.03;;;3.78;;
21860;SDS011;11095;48.066;8.540;2023-06-05T08:35:44;6.40;;;3.45;;
21860;SDS011;11095;48.066;8.540;2023-06-05T08:38:10;8.15;;;3.70;;
21860;SDS011;11095;48.066;8.540;2023-06-05T08:40:35;5.43;;;3.50;;
21860;SDS011;11095;48.066;8.540;2023-06-05T08:43:04;7.05;;;3.70;;
21860;SDS011;11095;48.066;8.540;2023-06-05T08:45:32;4.22;;;3.47;;
21860;SDS011;11095;48.066;8.540;2023-06-05T08:47:58;5.28;;;3.47;;
21860;SDS011;11095;48.066;8.540;2023-06-05T08:50:29;4.43;;;3.33;;
21860;SDS011;11095;48.066;8.540;2023-06-05T08:53:00;4.68;;;3.92;;
21860;SDS011;11095;48.066;8.540;2023-06-05T08:55:27;5.07;;;4.00;;
21860;SDS011;11095;48.066;8.540;2023-06-05T08:57:54;5.90;;;4.03;;
21860;SDS011;11095;48.066;8.540;2023-06-05T09:00:21;5.13;;;3.78;;
21860;SDS011;11095;48.066;8.540;2023-06-05T09:02:47;5.72;;;3.70;;
21860;SDS011;11095;48.066;8.540;2023-06-05T09:05:13;5.03;;;3.58;;
21860;SDS011;11095;48.066;8.540;2023-06-05T09:07:40;5.75;;;3.83;;
21860;SDS011;11095;48.066;8.540;2023-06-05T09:10:06;5.40;;;4.00;;
21860;SDS011;11095;48.066;8.540;2023-06-05T09:12:54;6.93;;;4.00;;
21860;SDS011;11095;48.066;8.540;2023-06-05T09:15:27;6.22;;;4.10;;
21860;SDS011;11095;48.066;8.540;2023-06-05T09:20:34;7.22;;;4.28;;
21860;SDS011;11095;48.066;8.540;2023-06-05T09:23:01;6.45;;;4.07;;
21860;SDS011;11095;48.066;8.540;2023-06-05T09:25:46;6.22;;;4.50;;
21860;SDS011;11095;48.066;8.540;2023-06-05T09:28:16;4.95;;;4.07;;
21860;SDS011;11095;48.066;8.540;2023-06-05T09:33:24;5.70;;;4.20;;
21860;SDS011;11095;48.066;8.540;2023-06-05T09:36:05;6.90;;;4.60;;
21860;SDS011;11095;48.066;8.540;2023-06-05T09:38:34;4.95;;;3.40;;
21860;SDS011;11095;48.066;8.540;2023-06-05T09:41:02;7.03;;;4.43;;
21860;SDS011;11095;48.066;8.540;2023-06-05T09:43:29;5.45;;;3.80;;
21860;SDS011;11095;48.066;8.540;2023-06-05T09:45:54;5.45;;;3.67;;
21860;SDS011;11095;48.066;8.540;2023-06-05T09:48:20;5.25;;;4.50;;
21860;SDS011;11095;48.066;8.540;2023-06-05T09:50:46;9.45;;;4.50;;
21860;SDS011;11095;48.066;8.540;2023-06-05T09:53:12;6.22;;;4.25;;
21860;SDS011;11095;48.066;8.540;2023-06-05T09:55:41;5.10;;;4.05;;
21860;SDS011;11095;48.066;8.540;2023-06-05T09:58:07;4.78;;;4.00;;
21860;SDS011;11095;48.066;8.540;2023-06-05T10:00:38;5.45;;;4.30;;
21860;SDS011;11095;48.066;8.540;2023-06-05T10:03:07;5.70;;;4.47;;
21860;SDS011;11095;48.066;8.540;2023-06-05T10:05:38;5.88;;;4.55;;
21860;SDS011;11095;48.066;8.540;2023-06-05T10:08:05;5.40;;;4.07;;
21860;SDS011;11095;48.066;8.540;2023-06-05T10:10:32;5.55;;;4.18;;
21860;SDS011;11095;48.066;8.540;2023-06-05T10:13:00;4.93;;;4.38;;
21860;SDS011;11095;48.066;8.540;2023-06-05T10:15:26;7.28;;;4.22;;
21860;SDS011;11095;48.066;8.540;2023-06-05T10:17:53;5.10;;;3.85;;
21860;SDS011;11095;48.066;8.540;2023-06-05T10:20:21;6.28;;;3.95;;
21860;SDS011;11095;48.066;8.540;2023-06-05T10:22:47;6.15;;;4.30;;
21860;SDS011;11095;48.066;8.540;2023-06-05T10:25:14;5.85;;;4.30;;
21860;SDS011;11095;48.066;8.540;2023-06-05T10:33:01;5.97;;;4.60;;
21860;SDS011;11095;48.066;8.540;2023-06-05T10:40:43;6.57;;;4.68;;
21860;SDS011;11095;48.066;8.540;2023-06-05T10:46:01;7.32;;;4.47;;
21860;SDS011;11095;48.066;8.540;2023-06-05T10:51:39;6.50;;;4.20;;
21860;SDS011;11095;48.066;8.540;2023-06-05T10:54:07;5.45;;;4.57;;
21860;SDS011;11095;48.066;8.540;2023-06-05T10:59:20;5.30;;;4.32;;
21860;SDS011;11095;48.066;8.540;2023-06-05T11:17:36;7.25;;;4.93;;
21860;SDS011;11095;48.066;8.540;2023-06-05T11:20:07;7.20;;;4.47;;
21860;SDS011;11095;48.066;8.540;2023-06-05T11:27:50;5.15;;;4.63;;
21860;SDS011;11095;48.066;8.540;2023-06-05T11:30:18;6.32;;;4.22;;
21860;SDS011;11095;48.066;8.540;2023-06-05T11:32:45;6.03;;;4.65;;
21860;SDS011;11095;48.066;8.540;2023-06-05T11:35:12;7.05;;;4.72;;
21860;SDS011;11095;48.066;8.540;2023-06-05T11:37:38;6.07;;;4.45;;
21860;SDS011;11095;48.066;8.540;2023-06-05T11:40:07;6.85;;;4.45;;
21860;SDS011;11095;48.066;8.540;2023-06-05T11:42:35;7.28;;;4.60;;
21860;SDS011;11095;48.066;8.540;2023-06-05T11:45:01;6.88;;;4.70;;
21860;SDS011;11095;48.066;8.540;2023-06-05T11:47:27;5.50;;;4.85;;
21860;SDS011;11095;48.066;8.540;2023-06-05T11:50:15;7.05;;;4.93;;
21860;SDS011;11095;48.066;8.540;2023-06-05T11:52:41;6.22;;;5.07;;
21860;SDS011;11095;48.066;8.540;2023-06-05T11:55:14;5.57;;;5.03;;
21860;SDS011;11095;48.066;8.540;2023-06-05T11:57:44;6.28;;;5.03;;
21860;SDS011;11095;48.066;8.540;2023-06-05T12:00:12;8.38;;;5.38;;
21860;SDS011;11095;48.066;8.540;2023-06-05T12:02:38;7.60;;;5.10;;
21860;SDS011;11095;48.066;8.540;2023-06-05T12:05:06;7.13;;;4.97;;
21860;SDS011;11095;48.066;8.540;2023-06-05T12:07:33;10.68;;;5.43;;
21860;SDS011;11095;48.066;8.540;2023-06-05T12:10:08;8.95;;;5.22;;
21860;SDS011;11095;48.066;8.540;2023-06-05T12:12:35;7.25;;;4.60;;
21860;SDS011;11095;48.066;8.540;2023-06-05T12:15:18;5.93;;;4.93;;
21860;SDS011;11095;48.066;8.540;2023-06-05T12:17:51;6.78;;;4.93;;
21860;SDS011;11095;48.066;8.540;2023-06-05T12:20:18;7.75;;;4.72;;
21860;SDS011;11095;48.066;8.540;2023-06-05T12:22:45;7.63;;;4.90;;
21860;SDS011;11095;48.066;8.540;2023-06-05T12:25:17;7.78;;;4.90;;
21860;SDS011;11095;48.066;8.540;2023-06-05T12:27:46;7.45;;;4.85;;
21860;SDS011;11095;48.066;8.540;2023-06-05T12:30:13;6.80;;;4.65;;
21860;SDS011;11095;48.066;8.540;2023-06-05T12:32:41;8.13;;;5.00;;
21860;SDS011;11095;48.066;8.540;2023-06-05T12:35:19;5.75;;;5.25;;
21860;SDS011;11095;48.066;8.540;2023-06-05T12:37:49;7.72;;;4.93;;
21860;SDS011;11095;48.066;8.540;2023-06-05T12:40:15;7.00;;;4.70;;
21860;SDS011;11095;48.066;8.540;2023-06-05T12:42:45;7.43;;;4.90;;
21860;SDS011;11095;48.066;8.540;2023-06-05T12:45:12;7.95;;;5.20;;
21860;SDS011;11095;48.066;8.540;2023-06-05T12:47:38;5.97;;;4.80;;
21860;SDS011;11095;48.066;8.540;2023-06-05T12:50:05;6.25;;;4.70;;
21860;SDS011;11095;48.066;8.540;2023-06-05T12:52:32;6.53;;;4.78;;
21860;SDS011;11095;48.066;8.540;2023-06-05T12:54:58;5.68;;;5.07;;
21860;SDS011;11095;48.066;8.540;2023-06-05T12:57:24;6.28;;;4.50;;
21860;SDS011;11095;48.066;8.540;2023-06-05T12:59:52;6.32;;;4.93;;
21860;SDS011;11095;48.066;8.540;2023-06-05T13:02:19;5.53;;;4.97;;
21860;SDS011;11095;48.066;8.540;2023-06-05T13:04:45;6.40;;;4.88;;
21860;SDS011;11095;48.066;8.540;2023-06-05T13:07:11;5.82;;;4.88;;
21860;SDS011;11095;48.066;8.540;2023-06-05T13:09:37;5.47;;;4.53;;
21860;SDS011;11095;48.066;8.540;2023-06-05T13:12:03;7.53;;;4.90;;
21860;SDS011;11095;48.066;8.540;2023-06-05T13:14:29;8.20;;;4.80;;
21860;SDS011;11095;48.066;8.540;2023-06-05T13:16:56;5.93;;;4.65;;
21860;SDS011;11095;48.066;8.540;2023-06-05T13:19:22;6.80;;;4.85;;
21860;SDS011;11095;48.066;8.540;2023-06-05T13:21:48;7.47;;;4.93;;
21860;SDS011;11095;48.066;8.540;2023-06-05T13:24:14;5.10;;;4.60;;
21860;SDS011;11095;48.066;8.540;2023-06-05T13:26:40;6.07;;;4.43;;
21860;SDS011;11095;48.066;8.540;2023-06-05T13:29:07;5.13;;;4.50;;
21860;SDS011;11095;48.066;8.540;2023-06-05T13:31:33;6.28;;;4.50;;
21860;SDS011;11095;48.066;8.540;2023-06-05T13:33:59;10.48;;;5.80;;
21860;SDS011;11095;48.066;8.540;2023-06-05T13:36:24;6.68;;;5.55;;
21860;SDS011;11095;48.066;8.540;2023-06-05T13:38:51;8.05;;;5.25;;
21860;SDS011;11095;48.066;8.540;2023-06-05T13:41:17;13.85;;;6.45;;
21860;SDS011;11095;48.066;8.540;2023-06-05T13:43:43;10.63;;;6.28;;
21860;SDS011;11095;48.066;8.540;2023-06-05T13:46:08;9.15;;;6.05;;
21860;SDS011;11095;48.066;8.540;2023-06-05T13:48:34;6.75;;;5.88;;
21860;SDS011;11095;48.066;8.540;2023-06-05T13:51:00;8.77;;;6.10;;
21860;SDS011;11095;48.066;8.540;2023-06-05T13:53:28;9.23;;;6.25;;
21860;SDS011;11095;48.066;8.540;2023-06-05T13:55:59;6.40;;;5.65;;
21860;SDS011;11095;48.066;8.540;2023-06-05T13:58:28;9.77;;;6.07;;
21860;SDS011;11095;48.066;8.540;2023-06-05T14:00:54;6.63;;;5.57;;
21860;SDS011;11095;48.066;8.540;2023-06-05T14:03:20;6.40;;;5.70;;
21860;SDS011;11095;48.066;8.540;2023-06-05T14:05:46;8.02;;;5.85;;
21860;SDS011;11095;48.066;8.540;2023-06-05T14:08:11;7.00;;;5.43;;
21860;SDS011;11095;48.066;8.540;2023-06-05T14:10:37;7.43;;;5.80;;
21860;SDS011;11095;48.066;8.540;2023-06-05T14:13:02;6.32;;;5.20;;
21860;SDS011;11095;48.066;8.540;2023-06-05T14:15:30;7.72;;;5.00;;
21860;SDS011;11095;48.066;8.540;2023-06-05T14:17:57;6.10;;;5.22;;
21860;SDS011;11095;48.066;8.540;2023-06-05T14:20:23;6.72;;;5.60;;
21860;SDS011;11095;48.066;8.540;2023-06-05T14:22:49;7.38;;;5.15;;
21860;SDS011;11095;48.066;8.540;2023-06-05T14:25:14;6.05;;;4.43;;
21860;SDS011;11095;48.066;8.540;2023-06-05T14:27:40;5.57;;;5.03;;
21860;SDS011;11095;48.066;8.540;2023-06-05T14:30:06;6.22;;;5.15;;
21860;SDS011;11095;48.066;8.540;2023-06-05T14:32:33;5.55;;;4.90;;
21860;SDS011;11095;48.066;8.540;2023-06-05T14:35:00;7.22;;;4.72;;
21860;SDS011;11095;48.066;8.540;2023-06-05T14:37:26;7.55;;;5.10;;
21860;SDS011;11095;48.066;8.540;2023-06-05T14:39:52;6.32;;;5.10;;
21860;SDS011;11095;48.066;8.540;2023-06-05T14:42:18;6.20;;;4.78;;
21860;SDS011;11095;48.066;8.540;2023-06-05T14:44:43;5.28;;;4.65;;
21860;SDS011;11095;48.066;8.540;2023-06-05T14:47:09;6.28;;;4.93;;
21860;SDS011;11095;48.066;8.540;2023-06-05T14:49:34;6.68;;;4.75;;
21860;SDS011;11095;48.066;8.540;2023-06-05T14:52:00;5.53;;;4.85;;
21860;SDS011;11095;48.066;8.540;2023-06-05T14:54:26;7.82;;;4.60;;
21860;SDS011;11095;48.066;8.540;2023-06-05T14:56:51;5.68;;;4.53;;
21860;SDS011;11095;48.066;8.540;2023-06-05T14:59:17;8.07;;;5.50;;
21860;SDS011;11095;48.066;8.540;2023-06-05T15:01:42;6.93;;;4.78;;
21860;SDS011;11095;48.066;8.540;2023-06-05T15:04:08;5.03;;;4.55;;
21860;SDS011;11095;48.066;8.540;2023-06-05T15:06:34;5.30;;;4.80;;
21860;SDS011;11095;48.066;8.540;2023-06-05T15:08:59;8.10;;;5.00;;
21860;SDS011;11095;48.066;8.540;2023-06-05T15:11:25;7.65;;;4.78;;
21860;SDS011;11095;48.066;8.540;2023-06-05T15:13:50;5.97;;;4.90;;
21860;SDS011;11095;48.066;8.540;2023-06-05T15:16:16;6.72;;;4.90;;
21860;SDS011;11095;48.066;8.540;2023-06-05T15:18:42;5.20;;;4.70;;
21860;SDS011;11095;48.066;8.540;2023-06-05T15:21:07;5.40;;;4.68;;
21860;SDS011;11095;48.066;8.540;2023-06-05T15:23:34;5.88;;;4.55;;
21860;SDS011;11095;48.066;8.540;2023-06-05T15:25:59;7.10;;;4.93;;
21860;SDS011;11095;48.066;8.540;2023-06-05T15:28:25;5.75;;;4.72;;
21860;SDS011;11095;48.066;8.540;2023-06-05T15:30:50;6.15;;;5.15;;
21860;SDS011;11095;48.066;8.540;2023-06-05T15:33:16;5.82;;;4.80;;
21860;SDS011;11095;48.066;8.540;2023-06-05T15:35:42;6.85;;;4.72;;
21860;SDS011;11095;48.066;8.540;2023-06-05T15:38:09;6.63;;;4.75;;